Miami, Florida
Current Conditions -  °F | °C
As of 2:53 AM on Saturday 25 Oct 2014 (Local Time) from KMIA Reporting Station
Scattered Clouds Scattered Clouds  
Wind Chill: 72°   Ceiling: Unl
Heat Index: 72°   Visibility: 10mi
Dew Point: 65°   Wind: 5mph
Humidity: 78%   Direction: NA
Pressure: 29.86"   Gusts: NA
Location:  25.77°N, 80.19°W
Report Text: KMIA 250653Z VRB04KT 10SM SCT030 22/18 A2986 RMK AO2 SLP112 T02220183
Loading
Personal Weather Stations






























Interactive Weather Map
Tropical Storm Tracking
New forecast layout! Learn more

10-Day Weather Forecast

Advertisements
Track Severe Weather on mobile